createdAt,value
2022-08-07T00:01:44.631Z,2.88
2022-08-07T00:03:50.800Z,2.40
2022-08-07T00:06:17.429Z,2.47
2022-08-07T00:08:47.179Z,2.80
2022-08-07T00:11:20.019Z,2.70
2022-08-07T00:13:57.076Z,2.53
2022-08-07T00:16:28.157Z,2.80
2022-08-07T00:18:54.855Z,2.42
2022-08-07T00:21:56.634Z,2.90
2022-08-07T00:24:09.174Z,2.80
2022-08-07T00:29:18.924Z,2.78
2022-08-07T00:31:50.088Z,2.88
2022-08-07T00:34:17.922Z,3.00
2022-08-07T00:36:48.297Z,2.55
2022-08-07T00:39:17.071Z,2.95
2022-08-07T00:41:53.685Z,2.93
2022-08-07T00:44:29.553Z,2.83
2022-08-07T00:46:56.148Z,3.00
2022-08-07T00:49:24.637Z,2.85
2022-08-07T00:52:09.969Z,2.70
2022-08-07T00:54:36.757Z,2.63
2022-08-07T00:57:07.449Z,3.15
2022-08-07T00:59:37.454Z,2.92
2022-08-07T01:02:09.033Z,2.92
2022-08-07T01:04:43.465Z,2.70
2022-08-07T01:07:11.109Z,2.78
2022-08-07T01:10:05.260Z,3.15
2022-08-07T01:12:29.743Z,2.80
2022-08-07T01:15:01.186Z,2.58
2022-08-07T01:17:29.218Z,2.95
2022-08-07T01:20:01.902Z,2.85
2022-08-07T01:22:31.667Z,2.60
2022-08-07T01:24:58.755Z,2.90
2022-08-07T01:27:25.471Z,2.40
2022-08-07T01:29:59.266Z,2.55
2022-08-07T01:32:28.040Z,3.20
2022-08-07T01:34:56.102Z,2.60
2022-08-07T01:37:24.396Z,2.85
2022-08-07T01:39:53.865Z,2.50
2022-08-07T01:45:09.668Z,2.10
2022-08-07T01:48:21.722Z,2.25
2022-08-07T01:50:28.969Z,2.05
2022-08-07T01:52:58.730Z,2.25
2022-08-07T01:55:28.713Z,2.28
2022-08-07T01:58:06.516Z,2.35
2022-08-07T02:00:50.082Z,2.55
2022-08-07T02:03:21.723Z,2.23
2022-08-07T02:05:59.605Z,2.20
2022-08-07T02:08:29.391Z,2.17
2022-08-07T02:11:00.740Z,2.00
2022-08-07T02:13:57.316Z,2.55
2022-08-07T02:16:28.600Z,2.10
2022-08-07T02:19:02.471Z,2.53
2022-08-07T02:21:56.236Z,1.90
2022-08-07T02:24:19.811Z,2.00
2022-08-07T02:26:50.223Z,2.00
2022-08-07T02:29:21.930Z,2.15
2022-08-07T02:31:51.373Z,2.10
2022-08-07T02:34:21.318Z,2.10
2022-08-07T02:36:51.541Z,2.05
2022-08-07T02:39:43.755Z,2.40
2022-08-07T02:42:10.161Z,2.78
2022-08-07T02:44:48.316Z,3.05
2022-08-07T02:47:19.466Z,2.65
2022-08-07T02:50:05.208Z,2.85
2022-08-07T02:52:35.463Z,2.28
2022-08-07T02:55:15.278Z,2.53
2022-08-07T02:57:58.395Z,1.90
2022-08-07T03:00:28.473Z,2.60
2022-08-07T03:02:58.469Z,2.80
2022-08-07T03:05:25.314Z,2.60
2022-08-07T03:08:07.322Z,2.55
2022-08-07T03:10:46.187Z,2.22
2022-08-07T03:13:15.843Z,2.58
2022-08-07T03:15:55.934Z,2.70
2022-08-07T03:18:25.878Z,2.60
2022-08-07T03:21:02.731Z,2.60
2022-08-07T03:23:33.712Z,3.13
2022-08-07T03:26:21.265Z,2.60
2022-08-07T03:28:53.515Z,2.90
2022-08-07T03:31:24.464Z,2.75
2022-08-07T03:33:55.578Z,2.72
2022-08-07T03:36:25.788Z,3.00
2022-08-07T03:38:57.491Z,2.47
2022-08-07T03:41:42.560Z,2.80
2022-08-07T03:44:13.133Z,2.70
2022-08-07T03:47:13.506Z,2.35
2022-08-07T03:49:29.367Z,2.40
2022-08-07T03:52:01.983Z,2.67
2022-08-07T03:54:35.148Z,2.25
2022-08-07T03:58:34.485Z,2.30
2022-08-07T04:00:05.347Z,2.45
2022-08-07T04:02:32.928Z,2.25
2022-08-07T04:04:59.522Z,2.28
2022-08-07T04:07:41.701Z,2.97
2022-08-07T04:10:15.665Z,2.25
2022-08-07T04:12:46.375Z,2.65
2022-08-07T04:15:16.569Z,2.13
2022-08-07T04:18:56.975Z,2.42
2022-08-07T04:20:31.221Z,2.65
2022-08-07T04:23:06.200Z,2.03
2022-08-07T04:25:35.795Z,2.50
2022-08-07T04:28:06.193Z,2.45
2022-08-07T04:30:55.545Z,2.72
2022-08-07T04:33:25.194Z,2.90
2022-08-07T04:35:54.059Z,2.33
2022-08-07T04:38:21.830Z,2.67
2022-08-07T04:40:51.875Z,2.45
2022-08-07T04:44:09.922Z,2.28
2022-08-07T04:46:20.130Z,2.05
2022-08-07T04:49:01.563Z,1.67
2022-08-07T04:51:44.903Z,1.77
2022-08-07T04:54:22.696Z,1.70
2022-08-07T04:58:16.697Z,2.10
2022-08-07T05:00:12.833Z,1.80
2022-08-07T05:02:52.852Z,1.92
2022-08-07T05:05:53.417Z,2.00
2022-08-07T05:08:18.311Z,1.98
2022-08-07T05:11:10.451Z,1.92
2022-08-07T05:14:53.679Z,1.77
2022-08-07T05:16:43.819Z,2.10
2022-08-07T05:19:17.287Z,2.33
2022-08-07T05:22:01.560Z,2.30
2022-08-07T05:24:30.735Z,2.20
2022-08-07T05:28:01.947Z,2.00
2022-08-07T05:30:00.731Z,2.30
2022-08-07T05:32:27.798Z,1.88
2022-08-07T05:34:56.761Z,2.40
2022-08-07T05:37:25.321Z,2.03
2022-08-07T05:40:05.864Z,1.60
2022-08-07T05:42:39.373Z,1.83
2022-08-07T05:45:14.445Z,1.80
2022-08-07T05:48:01.526Z,1.67
2022-08-07T05:50:33.156Z,1.50
2022-08-07T05:53:00.027Z,1.80
2022-08-07T05:56:03.054Z,1.92
2022-08-07T05:58:22.069Z,1.48
2022-08-07T06:01:05.934Z,1.63
2022-08-07T06:03:57.189Z,1.73
2022-08-07T06:06:29.788Z,1.27
2022-08-07T06:09:00.085Z,1.50
2022-08-07T06:11:27.886Z,1.30
2022-08-07T06:14:12.293Z,1.30
2022-08-07T06:16:44.097Z,1.20
2022-08-07T06:19:17.915Z,1.20
2022-08-07T06:22:14.979Z,1.40
2022-08-07T06:24:45.742Z,1.40
2022-08-07T06:27:22.928Z,1.27
2022-08-07T06:30:08.831Z,1.30
2022-08-07T06:32:55.315Z,1.40
2022-08-07T06:35:22.006Z,1.10
2022-08-07T06:37:52.948Z,1.63
2022-08-07T06:40:21.302Z,1.30
2022-08-07T06:42:49.783Z,1.27
2022-08-07T06:45:21.898Z,1.42
2022-08-07T06:47:58.458Z,1.48
2022-08-07T06:50:26.611Z,1.40
2022-08-07T06:52:56.874Z,1.45
2022-08-07T06:55:53.691Z,1.20
2022-08-07T06:58:16.714Z,1.00
2022-08-07T07:00:48.742Z,1.35
2022-08-07T07:03:26.516Z,1.20
2022-08-07T07:06:26.054Z,1.23
2022-08-07T07:08:54.587Z,1.20
2022-08-07T07:12:08.580Z,1.13
2022-08-07T07:14:10.241Z,1.30
2022-08-07T07:16:50.113Z,1.40
2022-08-07T07:19:55.479Z,1.70
2022-08-07T07:22:36.673Z,1.38
2022-08-07T07:25:02.773Z,1.42
2022-08-07T07:27:56.346Z,1.38
2022-08-07T07:30:38.705Z,1.38
2022-08-07T07:33:08.917Z,1.40
2022-08-07T07:35:43.801Z,1.20
2022-08-07T07:38:28.807Z,1.30
2022-08-07T07:41:02.607Z,1.40
2022-08-07T07:44:13.788Z,1.40
2022-08-07T07:46:36.936Z,1.30
2022-08-07T07:50:35.338Z,1.50
2022-08-07T07:51:59.733Z,1.20
2022-08-07T07:54:29.734Z,1.30
2022-08-07T07:57:00.370Z,1.20
2022-08-07T07:59:52.393Z,1.10
2022-08-07T08:02:34.282Z,1.23
2022-08-07T08:05:04.596Z,1.30
2022-08-07T08:07:35.753Z,1.02
2022-08-07T08:10:14.942Z,1.20
2022-08-07T08:13:00.596Z,1.15
2022-08-07T08:15:57.742Z,1.20
2022-08-07T08:18:24.245Z,1.27
2022-08-07T08:20:52.453Z,1.30
2022-08-07T08:23:22.336Z,1.23
2022-08-07T08:25:57.418Z,1.15
2022-08-07T08:28:38.534Z,1.10
2022-08-07T08:31:15.774Z,1.08
2022-08-07T08:33:48.967Z,1.25
2022-08-07T08:36:18.392Z,1.10
2022-08-07T08:38:55.761Z,1.05
2022-08-07T08:41:57.611Z,1.10
2022-08-07T08:44:29.709Z,1.10
2022-08-07T08:47:09.880Z,1.10
2022-08-07T08:49:46.284Z,1.30
2022-08-07T08:52:30.296Z,1.20
2022-08-07T08:55:04.734Z,1.60
2022-08-07T08:57:40.096Z,1.20
2022-08-07T09:00:10.697Z,1.23
2022-08-07T09:02:49.357Z,1.10
2022-08-07T09:05:32.282Z,1.20
2022-08-07T09:08:24.373Z,1.08
2022-08-07T09:11:03.832Z,1.08
2022-08-07T09:13:37.608Z,1.10
2022-08-07T09:16:25.227Z,1.10
2022-08-07T09:19:51.000Z,0.98
2022-08-07T09:24:28.309Z,1.55
2022-08-07T09:25:11.845Z,1.10
2022-08-07T09:28:00.374Z,1.20
2022-08-07T09:30:37.235Z,1.10
2022-08-07T09:33:16.639Z,1.00
2022-08-07T09:36:05.103Z,1.20
2022-08-07T09:41:14.286Z,1.10
2022-08-07T09:44:06.223Z,0.90
2022-08-07T09:47:50.851Z,1.00
2022-08-07T09:50:18.606Z,0.93
2022-08-07T09:52:48.598Z,1.10
2022-08-07T09:55:29.725Z,1.20
2022-08-07T09:58:32.226Z,0.80
2022-08-07T10:01:50.551Z,1.25
2022-08-07T10:04:28.080Z,0.95
2022-08-07T10:07:24.547Z,1.10
2022-08-07T10:10:20.956Z,1.30
2022-08-07T10:13:29.577Z,1.30
2022-08-07T10:16:09.734Z,1.10
2022-08-07T10:18:51.522Z,1.20
2022-08-07T10:22:14.604Z,1.15
2022-08-07T10:24:50.471Z,1.17
2022-08-07T10:27:46.321Z,2.78
2022-08-07T10:30:17.747Z,3.63
2022-08-07T10:33:00.222Z,1.05
2022-08-07T10:35:55.636Z,1.10
2022-08-07T10:38:49.073Z,1.10
2022-08-07T10:41:52.119Z,1.00
2022-08-07T10:44:33.792Z,1.30
2022-08-07T10:47:15.897Z,1.30
2022-08-07T10:49:50.834Z,0.95
2022-08-07T10:52:31.756Z,1.20
2022-08-07T10:55:26.747Z,1.10
2022-08-07T10:58:09.410Z,1.02
2022-08-07T11:00:50.381Z,1.50
2022-08-07T11:03:37.893Z,0.98
2022-08-07T11:06:21.977Z,1.38
2022-08-07T11:08:54.590Z,1.40
2022-08-07T11:11:27.252Z,1.05
2022-08-07T11:14:44.756Z,1.25
2022-08-07T11:16:54.793Z,4.15
2022-08-07T11:19:30.816Z,14.20
2022-08-07T11:22:11.190Z,15.75
2022-08-07T11:25:00.367Z,3.92
2022-08-07T11:28:02.092Z,1.08
2022-08-07T11:30:42.378Z,1.15
2022-08-07T11:33:16.732Z,1.08
2022-08-07T11:35:59.164Z,0.90
2022-08-07T11:38:33.378Z,0.98
2022-08-07T11:41:05.805Z,0.93
2022-08-07T11:44:11.131Z,2.63
2022-08-07T11:46:48.673Z,1.00
2022-08-07T11:50:11.498Z,1.10
2022-08-07T11:52:37.699Z,1.30
2022-08-07T11:55:18.682Z,1.27
2022-08-07T11:58:13.270Z,1.30
2022-08-07T12:01:02.087Z,1.60
2022-08-07T12:04:03.138Z,1.13
2022-08-07T12:06:55.295Z,1.40
2022-08-07T12:09:35.099Z,1.63
2022-08-07T12:12:10.503Z,1.20
2022-08-07T12:14:53.769Z,1.35
2022-08-07T12:17:33.895Z,1.10
2022-08-07T12:20:12.912Z,1.05
2022-08-07T12:23:16.291Z,0.90
2022-08-07T12:26:21.497Z,1.30
2022-08-07T12:28:45.014Z,1.30
2022-08-07T12:31:22.192Z,1.15
2022-08-07T12:34:00.919Z,1.30
2022-08-07T12:36:32.918Z,1.20
2022-08-07T12:39:02.506Z,1.30
2022-08-07T12:41:49.112Z,1.20
2022-08-07T12:44:21.226Z,1.00
2022-08-07T12:47:02.916Z,1.17
2022-08-07T12:49:48.939Z,1.10
2022-08-07T12:52:29.167Z,1.08
2022-08-07T12:55:09.510Z,1.00
2022-08-07T12:58:01.291Z,1.23
2022-08-07T13:00:35.811Z,1.20
2022-08-07T13:03:56.336Z,1.23
2022-08-07T13:06:27.674Z,1.20
2022-08-07T13:10:11.019Z,1.25
2022-08-07T13:12:02.326Z,1.20
2022-08-07T13:14:38.044Z,1.10
2022-08-07T13:17:40.693Z,1.20
2022-08-07T13:20:21.777Z,1.20
2022-08-07T13:23:03.872Z,1.10
2022-08-07T13:25:54.093Z,1.38
2022-08-07T13:28:33.863Z,1.10
2022-08-07T13:31:13.473Z,1.30
2022-08-07T13:34:30.946Z,1.10
2022-08-07T13:36:41.123Z,1.23
2022-08-07T13:39:49.481Z,1.20
2022-08-07T13:42:08.117Z,1.00
2022-08-07T13:44:38.378Z,1.38
2022-08-07T13:47:09.622Z,1.10
2022-08-07T13:52:39.651Z,1.25
2022-08-07T13:55:13.145Z,1.13
2022-08-07T13:58:02.067Z,1.23
2022-08-07T14:00:50.641Z,1.40
2022-08-07T14:03:29.068Z,1.15
2022-08-07T14:06:11.312Z,1.33
2022-08-07T14:08:44.672Z,1.27
2022-08-07T14:11:17.674Z,1.27
2022-08-07T14:13:51.445Z,1.20
2022-08-07T14:16:31.136Z,1.50
2022-08-07T14:19:01.446Z,1.52
2022-08-07T14:22:01.021Z,1.20
2022-08-07T14:24:26.185Z,1.20
2022-08-07T14:26:57.949Z,1.40
2022-08-07T14:30:07.714Z,1.23
2022-08-07T14:32:19.713Z,1.30
2022-08-07T14:34:48.022Z,1.40
2022-08-07T14:37:17.997Z,1.00
2022-08-07T14:40:17.437Z,1.50
2022-08-07T14:43:01.190Z,1.25
2022-08-07T14:45:46.748Z,1.08
2022-08-07T14:48:19.612Z,1.75
2022-08-07T14:54:03.712Z,1.33
2022-08-07T14:56:08.760Z,1.20
2022-08-07T14:58:42.881Z,1.48
2022-08-07T15:04:05.731Z,1.20
2022-08-07T15:06:33.670Z,1.50
2022-08-07T15:09:59.119Z,1.23
2022-08-07T15:14:57.662Z,1.45
2022-08-07T15:20:33.627Z,1.40
2022-08-07T15:22:53.711Z,1.30
2022-08-07T15:25:24.600Z,1.27
2022-08-07T15:28:34.764Z,1.00
2022-08-07T15:33:45.954Z,1.42
2022-08-07T15:37:02.676Z,1.20
2022-08-07T15:39:05.517Z,1.25
2022-08-07T15:44:30.035Z,1.30
2022-08-07T15:50:04.006Z,1.30
2022-08-07T15:52:39.881Z,1.27
2022-08-07T15:55:12.190Z,1.20
2022-08-07T15:57:48.815Z,1.23
2022-08-07T16:00:31.579Z,1.40
2022-08-07T16:03:03.131Z,1.30
2022-08-07T16:05:32.312Z,1.38
2022-08-07T16:08:31.591Z,1.35
2022-08-07T16:10:56.552Z,1.35
2022-08-07T16:13:59.738Z,1.02
2022-08-07T16:16:56.756Z,1.42
2022-08-07T16:19:59.461Z,1.35
2022-08-07T16:23:12.048Z,1.30
2022-08-07T16:25:55.249Z,1.10
2022-08-07T16:29:18.401Z,1.50
2022-08-07T16:31:51.922Z,1.20
2022-08-07T16:34:31.501Z,1.27
2022-08-07T16:38:03.011Z,1.45
2022-08-07T16:40:57.054Z,1.30
2022-08-07T16:44:03.761Z,1.55
2022-08-07T16:47:28.823Z,1.50
2022-08-07T16:50:35.846Z,1.50
2022-08-07T16:54:01.603Z,1.33
2022-08-07T16:56:32.350Z,1.58
2022-08-07T17:01:56.664Z,1.50
2022-08-07T17:04:36.813Z,1.30
2022-08-07T17:07:28.190Z,1.50
2022-08-07T17:13:16.687Z,1.50
2022-08-07T17:15:52.685Z,1.40
2022-08-07T17:18:28.092Z,1.67
2022-08-07T17:20:55.782Z,1.42
2022-08-07T17:23:36.816Z,1.50
2022-08-07T17:26:23.363Z,1.40
2022-08-07T17:29:05.966Z,1.50
2022-08-07T17:32:02.811Z,1.63
2022-08-07T17:34:38.867Z,1.70
2022-08-07T17:38:06.686Z,1.55
2022-08-07T17:43:03.925Z,1.48
2022-08-07T17:45:54.215Z,1.25
2022-08-07T17:48:30.634Z,1.60
2022-08-07T17:51:04.709Z,1.20
2022-08-07T17:54:02.463Z,1.30
2022-08-07T17:56:31.438Z,1.35
2022-08-07T17:59:08.924Z,1.40
2022-08-07T18:01:44.289Z,1.33
2022-08-07T18:04:24.635Z,1.33
2022-08-07T18:07:22.655Z,1.20
2022-08-07T18:10:05.896Z,1.13
2022-08-07T18:13:02.478Z,1.45
2022-08-07T18:15:40.376Z,1.25
2022-08-07T18:18:47.400Z,1.60
2022-08-07T18:21:42.091Z,1.20
2022-08-07T18:24:06.978Z,1.15
2022-08-07T18:26:56.431Z,1.45
2022-08-07T18:30:05.802Z,1.27
2022-08-07T18:32:36.381Z,1.45
2022-08-07T18:35:15.747Z,1.40
2022-08-07T18:38:58.087Z,1.27
2022-08-07T18:41:08.049Z,1.50
2022-08-07T18:43:49.419Z,1.70
2022-08-07T18:46:25.392Z,2.00
2022-08-07T18:50:19.460Z,3.28
2022-08-07T18:52:37.484Z,2.63
2022-08-07T18:55:00.601Z,2.85
2022-08-07T18:57:59.832Z,1.92
2022-08-07T19:00:41.365Z,2.30
2022-08-07T19:03:17.988Z,4.18
2022-08-07T19:06:02.167Z,10.80
2022-08-07T19:08:37.607Z,6.97
2022-08-07T19:11:35.632Z,4.53
2022-08-07T19:14:17.101Z,1.80
2022-08-07T19:17:05.021Z,2.33
2022-08-07T19:19:46.061Z,2.65
2022-08-07T19:22:30.255Z,1.58
2022-08-07T19:25:06.538Z,1.95
2022-08-07T19:28:57.032Z,2.15
2022-08-07T19:30:58.578Z,1.80
2022-08-07T19:33:34.984Z,2.10
2022-08-07T19:36:04.026Z,1.90
2022-08-07T19:42:08.356Z,1.70
2022-08-07T19:44:49.189Z,1.67
2022-08-07T19:47:27.422Z,2.50
2022-08-07T19:49:57.824Z,1.45
2022-08-07T19:52:28.018Z,2.00
2022-08-07T19:54:56.479Z,2.10
2022-08-07T19:58:03.414Z,1.65
2022-08-07T20:00:21.796Z,1.85
2022-08-07T20:03:00.028Z,1.70
2022-08-07T20:05:31.026Z,1.70
2022-08-07T20:08:23.517Z,2.00
2022-08-07T20:10:55.826Z,1.75
2022-08-07T20:13:32.161Z,2.25
2022-08-07T20:16:01.993Z,2.28
2022-08-07T20:18:33.522Z,1.40
2022-08-07T20:21:03.287Z,1.35
2022-08-07T20:23:51.902Z,1.40
2022-08-07T20:26:32.296Z,1.48
2022-08-07T20:29:01.227Z,1.60
2022-08-07T20:31:42.629Z,1.33
2022-08-07T20:34:11.049Z,1.55
2022-08-07T20:36:40.799Z,1.60
2022-08-07T20:40:01.447Z,1.70
2022-08-07T20:41:58.800Z,1.73
2022-08-07T20:44:28.775Z,1.50
2022-08-07T20:47:05.825Z,1.30
2022-08-07T20:49:57.887Z,1.50
2022-08-07T20:52:50.672Z,1.67
2022-08-07T20:55:14.873Z,1.70
2022-08-07T20:57:47.672Z,1.77
2022-08-07T21:00:38.059Z,1.70
2022-08-07T21:03:13.976Z,1.60
2022-08-07T21:05:54.350Z,1.30
2022-08-07T21:08:36.769Z,1.80
2022-08-07T21:11:12.078Z,1.60
2022-08-07T21:14:16.448Z,1.35
2022-08-07T21:16:55.865Z,1.73
2022-08-07T21:19:32.166Z,1.42
2022-08-07T21:22:15.372Z,1.45
2022-08-07T21:25:04.558Z,1.77
2022-08-07T21:27:53.472Z,1.48
2022-08-07T21:30:30.131Z,1.60
2022-08-07T21:33:10.973Z,1.70
2022-08-07T21:36:05.022Z,1.60
2022-08-07T21:41:10.165Z,1.83
2022-08-07T21:43:55.409Z,1.70
2022-08-07T21:46:32.096Z,1.80
2022-08-07T21:49:15.005Z,1.60
2022-08-07T21:51:54.883Z,1.50
2022-08-07T21:54:34.794Z,1.80
2022-08-07T21:57:16.121Z,1.45
2022-08-07T22:00:03.520Z,1.60
2022-08-07T22:02:41.167Z,1.90
2022-08-07T22:05:12.340Z,1.45
2022-08-07T22:07:59.351Z,1.60
2022-08-07T22:10:33.878Z,1.65
2022-08-07T22:13:05.876Z,1.75
2022-08-07T22:16:39.548Z,1.50
2022-08-07T22:18:35.318Z,1.88
2022-08-07T22:21:12.347Z,1.88
2022-08-07T22:23:47.121Z,1.63
2022-08-07T22:26:20.385Z,1.70
2022-08-07T22:28:55.003Z,1.98
2022-08-07T22:31:45.514Z,1.65
2022-08-07T22:34:29.194Z,1.63
2022-08-07T22:37:09.228Z,1.83
2022-08-07T22:39:53.519Z,1.52
2022-08-07T22:42:25.623Z,1.70
2022-08-07T22:44:58.656Z,1.55
2022-08-07T22:47:45.303Z,1.58
2022-08-07T22:50:33.354Z,1.45
2022-08-07T22:53:18.636Z,1.67
2022-08-07T22:56:08.629Z,1.60
2022-08-07T22:59:02.281Z,2.00
2022-08-07T23:01:51.644Z,1.70
2022-08-07T23:04:35.756Z,1.80
2022-08-07T23:07:41.461Z,2.10
2022-08-07T23:10:38.165Z,1.70
2022-08-07T23:13:48.833Z,1.98
2022-08-07T23:16:55.003Z,1.63
2022-08-07T23:19:51.438Z,2.15
2022-08-07T23:22:34.078Z,1.70
2022-08-07T23:25:13.709Z,1.70
2022-08-07T23:28:22.529Z,1.70
2022-08-07T23:31:11.640Z,1.95
2022-08-07T23:34:38.311Z,1.65
2022-08-07T23:37:32.873Z,1.88
2022-08-07T23:40:11.489Z,1.80
2022-08-07T23:42:53.997Z,1.90
2022-08-07T23:45:43.508Z,1.75
2022-08-07T23:48:39.867Z,1.75
2022-08-07T23:52:58.815Z,1.70
2022-08-07T23:54:04.032Z,1.88
2022-08-07T23:56:38.004Z,1.85
2022-08-07T23:59:25.612Z,1.90
